sensor_id;sensor_type;location;lat;lon;timestamp;P1;durP1;ratioP1;P2;durP2;ratioP2
11533;SDS011;5823;50.588;8.462;2024-03-23T00:52:36;0.80;;;0.80;;
11533;SDS011;5823;50.588;8.462;2024-03-23T00:55:03;0.70;;;0.70;;
11533;SDS011;5823;50.588;8.462;2024-03-23T00:57:28;0.50;;;0.50;;
11533;SDS011;5823;50.588;8.462;2024-03-23T00:59:54;0.60;;;0.60;;
11533;SDS011;5823;50.588;8.462;2024-03-23T01:02:19;0.80;;;0.80;;
11533;SDS011;5823;50.588;8.462;2024-03-23T01:04:46;0.80;;;0.80;;
11533;SDS011;5823;50.588;8.462;2024-03-23T01:07:11;0.68;;;0.68;;
11533;SDS011;5823;50.588;8.462;2024-03-23T01:09:38;1.05;;;0.95;;
11533;SDS011;5823;50.588;8.462;2024-03-23T01:12:04;1.10;;;0.95;;
11533;SDS011;5823;50.588;8.462;2024-03-23T01:14:30;0.80;;;0.80;;
11533;SDS011;5823;50.588;8.462;2024-03-23T01:16:55;0.85;;;0.82;;
11533;SDS011;5823;50.588;8.462;2024-03-23T01:19:22;0.90;;;0.90;;
11533;SDS011;5823;50.588;8.462;2024-03-23T01:21:48;1.50;;;1.40;;
11533;SDS011;5823;50.588;8.462;2024-03-23T01:24:14;0.85;;;0.85;;
11533;SDS011;5823;50.588;8.462;2024-03-23T01:26:41;0.98;;;0.90;;
11533;SDS011;5823;50.588;8.462;2024-03-23T01:29:07;0.95;;;0.80;;
11533;SDS011;5823;50.588;8.462;2024-03-23T01:31:33;1.17;;;1.05;;
11533;SDS011;5823;50.588;8.462;2024-03-23T01:33:58;0.68;;;0.63;;
11533;SDS011;5823;50.588;8.462;2024-03-23T01:36:24;1.02;;;0.93;;
11533;SDS011;5823;50.588;8.462;2024-03-23T01:38:50;0.95;;;0.95;;
11533;SDS011;5823;50.588;8.462;2024-03-23T01:41:16;0.82;;;0.80;;
11533;SDS011;5823;50.588;8.462;2024-03-23T01:43:44;0.80;;;0.80;;
11533;SDS011;5823;50.588;8.462;2024-03-23T01:46:10;0.65;;;0.65;;
11533;SDS011;5823;50.588;8.462;2024-03-23T01:48:35;0.90;;;0.90;;
11533;SDS011;5823;50.588;8.462;2024-03-23T01:51:02;1.00;;;0.90;;
11533;SDS011;5823;50.588;8.462;2024-03-23T01:53:28;1.10;;;1.00;;
11533;SDS011;5823;50.588;8.462;2024-03-23T01:55:54;1.17;;;0.88;;
11533;SDS011;5823;50.588;8.462;2024-03-23T01:58:22;0.50;;;0.50;;
11533;SDS011;5823;50.588;8.462;2024-03-23T02:00:49;0.70;;;0.70;;
11533;SDS011;5823;50.588;8.462;2024-03-23T02:03:24;0.70;;;0.70;;
11533;SDS011;5823;50.588;8.462;2024-03-23T02:05:50;0.80;;;0.80;;
11533;SDS011;5823;50.588;8.462;2024-03-23T02:08:16;0.63;;;0.63;;
11533;SDS011;5823;50.588;8.462;2024-03-23T02:10:43;0.60;;;0.60;;
11533;SDS011;5823;50.588;8.462;2024-03-23T02:13:09;0.70;;;0.70;;
11533;SDS011;5823;50.588;8.462;2024-03-23T02:15:35;0.73;;;0.73;;
11533;SDS011;5823;50.588;8.462;2024-03-23T02:18:02;0.90;;;0.90;;
11533;SDS011;5823;50.588;8.462;2024-03-23T02:20:28;0.75;;;0.75;;
11533;SDS011;5823;50.588;8.462;2024-03-23T02:22:55;0.75;;;0.75;;
11533;SDS011;5823;50.588;8.462;2024-03-23T02:25:21;0.65;;;0.65;;
11533;SDS011;5823;50.588;8.462;2024-03-23T02:27:46;0.85;;;0.80;;
11533;SDS011;5823;50.588;8.462;2024-03-23T02:30:13;0.68;;;0.68;;
11533;SDS011;5823;50.588;8.462;2024-03-23T02:32:38;0.70;;;0.70;;
11533;SDS011;5823;50.588;8.462;2024-03-23T02:35:05;0.65;;;0.57;;
11533;SDS011;5823;50.588;8.462;2024-03-23T02:37:30;0.80;;;0.80;;
11533;SDS011;5823;50.588;8.462;2024-03-23T02:39:58;0.63;;;0.63;;
11533;SDS011;5823;50.588;8.462;2024-03-23T02:42:23;0.80;;;0.80;;
11533;SDS011;5823;50.588;8.462;2024-03-23T02:44:50;1.42;;;1.00;;
11533;SDS011;5823;50.588;8.462;2024-03-23T02:47:15;0.88;;;0.80;;
11533;SDS011;5823;50.588;8.462;2024-03-23T02:49:41;0.85;;;0.82;;
11533;SDS011;5823;50.588;8.462;2024-03-23T02:52:06;0.80;;;0.80;;
11533;SDS011;5823;50.588;8.462;2024-03-23T02:54:33;0.93;;;0.93;;
11533;SDS011;5823;50.588;8.462;2024-03-23T02:56:59;0.88;;;0.82;;
11533;SDS011;5823;50.588;8.462;2024-03-23T02:59:25;0.60;;;0.60;;
11533;SDS011;5823;50.588;8.462;2024-03-23T03:01:51;0.80;;;0.80;;
11533;SDS011;5823;50.588;8.462;2024-03-23T03:04:17;1.30;;;1.20;;
11533;SDS011;5823;50.588;8.462;2024-03-23T03:06:43;1.10;;;1.00;;
11533;SDS011;5823;50.588;8.462;2024-03-23T03:09:11;0.85;;;0.80;;
11533;SDS011;5823;50.588;8.462;2024-03-23T03:11:36;1.20;;;1.10;;
11533;SDS011;5823;50.588;8.462;2024-03-23T03:14:03;1.88;;;1.77;;
11533;SDS011;5823;50.588;8.462;2024-03-23T03:16:29;1.40;;;1.30;;
11533;SDS011;5823;50.588;8.462;2024-03-23T03:18:55;1.65;;;1.55;;
11533;SDS011;5823;50.588;8.462;2024-03-23T03:21:21;1.50;;;1.40;;
11533;SDS011;5823;50.588;8.462;2024-03-23T03:23:47;0.95;;;0.90;;
11533;SDS011;5823;50.588;8.462;2024-03-23T03:26:15;1.25;;;1.13;;
11533;SDS011;5823;50.588;8.462;2024-03-23T03:28:42;1.30;;;1.20;;
11533;SDS011;5823;50.588;8.462;2024-03-23T03:31:09;1.35;;;1.25;;
11533;SDS011;5823;50.588;8.462;2024-03-23T03:33:36;0.88;;;0.85;;
11533;SDS011;5823;50.588;8.462;2024-03-23T03:36:01;0.80;;;0.80;;
11533;SDS011;5823;50.588;8.462;2024-03-23T03:38:27;0.50;;;0.50;;
11533;SDS011;5823;50.588;8.462;2024-03-23T03:40:52;0.30;;;0.30;;
11533;SDS011;5823;50.588;8.462;2024-03-23T03:43:19;0.25;;;0.25;;
11533;SDS011;5823;50.588;8.462;2024-03-23T03:45:50;0.30;;;0.30;;
11533;SDS011;5823;50.588;8.462;2024-03-23T03:48:18;0.28;;;0.28;;
11533;SDS011;5823;50.588;8.462;2024-03-23T03:50:43;0.20;;;0.20;;
11533;SDS011;5823;50.588;8.462;2024-03-23T03:53:09;0.20;;;0.20;;
11533;SDS011;5823;50.588;8.462;2024-03-23T03:55:35;0.30;;;0.25;;
11533;SDS011;5823;50.588;8.462;2024-03-23T03:58:01;0.20;;;0.20;;
11533;SDS011;5823;50.588;8.462;2024-03-23T04:00:26;0.17;;;0.17;;
11533;SDS011;5823;50.588;8.462;2024-03-23T04:02:52;0.00;;;0.00;;
11533;SDS011;5823;50.588;8.462;2024-03-23T04:05:19;0.20;;;0.20;;
11533;SDS011;5823;50.588;8.462;2024-03-23T04:07:45;0.10;;;0.10;;
11533;SDS011;5823;50.588;8.462;2024-03-23T04:10:11;0.10;;;0.10;;
11533;SDS011;5823;50.588;8.462;2024-03-23T04:12:37;0.10;;;0.10;;
11533;SDS011;5823;50.588;8.462;2024-03-23T04:15:02;0.10;;;0.10;;
11533;SDS011;5823;50.588;8.462;2024-03-23T04:17:30;0.08;;;0.08;;
11533;SDS011;5823;50.588;8.462;2024-03-23T04:19:57;0.10;;;0.10;;
11533;SDS011;5823;50.588;8.462;2024-03-23T04:22:24;0.00;;;0.00;;
11533;SDS011;5823;50.588;8.462;2024-03-23T04:24:51;0.10;;;0.10;;
11533;SDS011;5823;50.588;8.462;2024-03-23T04:27:18;0.00;;;0.00;;
11533;SDS011;5823;50.588;8.462;2024-03-23T04:29:46;0.00;;;0.00;;
11533;SDS011;5823;50.588;8.462;2024-03-23T04:32:12;0.00;;;0.00;;
11533;SDS011;5823;50.588;8.462;2024-03-23T04:34:39;0.00;;;0.00;;
11533;SDS011;5823;50.588;8.462;2024-03-23T04:37:05;0.03;;;0.03;;
11533;SDS011;5823;50.588;8.462;2024-03-23T04:39:32;0.00;;;0.00;;
11533;SDS011;5823;50.588;8.462;2024-03-23T04:41:58;0.10;;;0.10;;
11533;SDS011;5823;50.588;8.462;2024-03-23T04:44:24;0.00;;;0.00;;
11533;SDS011;5823;50.588;8.462;2024-03-23T04:46:50;0.20;;;0.20;;
11533;SDS011;5823;50.588;8.462;2024-03-23T04:49:16;0.10;;;0.10;;
11533;SDS011;5823;50.588;8.462;2024-03-23T04:51:43;0.10;;;0.00;;
11533;SDS011;5823;50.588;8.462;2024-03-23T04:54:11;0.00;;;0.00;;
11533;SDS011;5823;50.588;8.462;2024-03-23T04:56:38;0.00;;;0.00;;
11533;SDS011;5823;50.588;8.462;2024-03-23T04:59:05;0.00;;;0.00;;
11533;SDS011;5823;50.588;8.462;2024-03-23T05:01:30;0.00;;;0.00;;
11533;SDS011;5823;50.588;8.462;2024-03-23T05:03:56;0.00;;;0.00;;
11533;SDS011;5823;50.588;8.462;2024-03-23T05:06:22;0.10;;;0.10;;
11533;SDS011;5823;50.588;8.462;2024-03-23T05:08:48;0.10;;;0.10;;
11533;SDS011;5823;50.588;8.462;2024-03-23T05:11:14;0.10;;;0.10;;
11533;SDS011;5823;50.588;8.462;2024-03-23T05:13:42;0.00;;;0.00;;
11533;SDS011;5823;50.588;8.462;2024-03-23T05:16:07;0.00;;;0.00;;
11533;SDS011;5823;50.588;8.462;2024-03-23T05:18:33;0.22;;;0.17;;
11533;SDS011;5823;50.588;8.462;2024-03-23T05:20:59;0.10;;;0.10;;
11533;SDS011;5823;50.588;8.462;2024-03-23T05:23:25;0.47;;;0.25;;
11533;SDS011;5823;50.588;8.462;2024-03-23T05:25:50;0.20;;;0.20;;
11533;SDS011;5823;50.588;8.462;2024-03-23T05:28:18;0.10;;;0.10;;
11533;SDS011;5823;50.588;8.462;2024-03-23T05:30:45;0.25;;;0.25;;
11533;SDS011;5823;50.588;8.462;2024-03-23T05:33:15;0.20;;;0.20;;
11533;SDS011;5823;50.588;8.462;2024-03-23T05:35:41;0.10;;;0.10;;
11533;SDS011;5823;50.588;8.462;2024-03-23T05:38:07;0.00;;;0.00;;
11533;SDS011;5823;50.588;8.462;2024-03-23T05:40:32;0.00;;;0.00;;
11533;SDS011;5823;50.588;8.462;2024-03-23T05:43:02;0.08;;;0.08;;
11533;SDS011;5823;50.588;8.462;2024-03-23T05:45:27;0.00;;;0.00;;
11533;SDS011;5823;50.588;8.462;2024-03-23T05:47:55;0.10;;;0.10;;
11533;SDS011;5823;50.588;8.462;2024-03-23T05:50:21;0.15;;;0.10;;
11533;SDS011;5823;50.588;8.462;2024-03-23T05:52:48;0.00;;;0.00;;
11533;SDS011;5823;50.588;8.462;2024-03-23T05:55:13;0.00;;;0.00;;
11533;SDS011;5823;50.588;8.462;2024-03-23T05:57:40;0.10;;;0.05;;
11533;SDS011;5823;50.588;8.462;2024-03-23T06:00:06;0.00;;;0.00;;
11533;SDS011;5823;50.588;8.462;2024-03-23T06:02:35;0.00;;;0.00;;
11533;SDS011;5823;50.588;8.462;2024-03-23T06:05:02;0.03;;;0.00;;
11533;SDS011;5823;50.588;8.462;2024-03-23T06:07:29;0.00;;;0.00;;
11533;SDS011;5823;50.588;8.462;2024-03-23T06:09:54;0.00;;;0.00;;
11533;SDS011;5823;50.588;8.462;2024-03-23T06:12:21;0.05;;;0.00;;
11533;SDS011;5823;50.588;8.462;2024-03-23T06:14:47;0.20;;;0.20;;
11533;SDS011;5823;50.588;8.462;2024-03-23T06:17:14;0.00;;;0.00;;
11533;SDS011;5823;50.588;8.462;2024-03-23T06:19:40;0.40;;;0.20;;
11533;SDS011;5823;50.588;8.462;2024-03-23T06:22:08;0.00;;;0.00;;
11533;SDS011;5823;50.588;8.462;2024-03-23T06:24:33;0.20;;;0.10;;
11533;SDS011;5823;50.588;8.462;2024-03-23T06:26:59;0.05;;;0.05;;
11533;SDS011;5823;50.588;8.462;2024-03-23T06:29:24;0.00;;;0.00;;
11533;SDS011;5823;50.588;8.462;2024-03-23T06:31:54;0.10;;;0.00;;
11533;SDS011;5823;50.588;8.462;2024-03-23T06:34:19;0.00;;;0.00;;
11533;SDS011;5823;50.588;8.462;2024-03-23T06:36:46;0.03;;;0.03;;
11533;SDS011;5823;50.588;8.462;2024-03-23T06:39:13;0.10;;;0.10;;
11533;SDS011;5823;50.588;8.462;2024-03-23T06:41:40;0.05;;;0.05;;
11533;SDS011;5823;50.588;8.462;2024-03-23T06:44:05;0.28;;;0.28;;
11533;SDS011;5823;50.588;8.462;2024-03-23T06:46:31;0.00;;;0.00;;
11533;SDS011;5823;50.588;8.462;2024-03-23T06:48:59;0.13;;;0.13;;
11533;SDS011;5823;50.588;8.462;2024-03-23T06:51:26;0.00;;;0.00;;
11533;SDS011;5823;50.588;8.462;2024-03-23T06:53:51;0.00;;;0.00;;
11533;SDS011;5823;50.588;8.462;2024-03-23T06:56:18;0.47;;;0.10;;
11533;SDS011;5823;50.588;8.462;2024-03-23T06:58:44;0.25;;;0.03;;
11533;SDS011;5823;50.588;8.462;2024-03-23T07:01:10;0.10;;;0.10;;
11533;SDS011;5823;50.588;8.462;2024-03-23T07:03:36;0.32;;;0.13;;
11533;SDS011;5823;50.588;8.462;2024-03-23T07:06:02;0.30;;;0.30;;
11533;SDS011;5823;50.588;8.462;2024-03-23T07:08:28;0.10;;;0.10;;
11533;SDS011;5823;50.588;8.462;2024-03-23T07:10:54;0.17;;;0.17;;
11533;SDS011;5823;50.588;8.462;2024-03-23T07:13:21;0.08;;;0.08;;
11533;SDS011;5823;50.588;8.462;2024-03-23T07:15:51;0.05;;;0.05;;
11533;SDS011;5823;50.588;8.462;2024-03-23T07:18:16;0.00;;;0.00;;
11533;SDS011;5823;50.588;8.462;2024-03-23T07:20:42;0.00;;;0.00;;
11533;SDS011;5823;50.588;8.462;2024-03-23T07:23:07;0.43;;;0.08;;
11533;SDS011;5823;50.588;8.462;2024-03-23T07:25:34;0.03;;;0.00;;
11533;SDS011;5823;50.588;8.462;2024-03-23T07:27:59;0.10;;;0.08;;
11533;SDS011;5823;50.588;8.462;2024-03-23T07:30:26;0.05;;;0.05;;
11533;SDS011;5823;50.588;8.462;2024-03-23T07:32:52;0.03;;;0.00;;
11533;SDS011;5823;50.588;8.462;2024-03-23T07:35:19;0.10;;;0.10;;
11533;SDS011;5823;50.588;8.462;2024-03-23T07:37:44;0.10;;;0.10;;
11533;SDS011;5823;50.588;8.462;2024-03-23T07:40:11;0.32;;;0.32;;
11533;SDS011;5823;50.588;8.462;2024-03-23T07:42:36;0.50;;;0.50;;
11533;SDS011;5823;50.588;8.462;2024-03-23T07:45:03;1.95;;;1.58;;
11533;SDS011;5823;50.588;8.462;2024-03-23T07:47:30;1.05;;;0.70;;
11533;SDS011;5823;50.588;8.462;2024-03-23T07:49:56;0.43;;;0.40;;
11533;SDS011;5823;50.588;8.462;2024-03-23T07:52:21;1.35;;;1.20;;
11533;SDS011;5823;50.588;8.462;2024-03-23T07:54:47;1.25;;;0.90;;
11533;SDS011;5823;50.588;8.462;2024-03-23T07:57:13;0.50;;;0.50;;
11533;SDS011;5823;50.588;8.462;2024-03-23T07:59:39;0.88;;;0.65;;
11533;SDS011;5823;50.588;8.462;2024-03-23T08:02:04;0.45;;;0.40;;
11533;SDS011;5823;50.588;8.462;2024-03-23T08:04:32;0.60;;;0.20;;
11533;SDS011;5823;50.588;8.462;2024-03-23T08:06:57;0.13;;;0.10;;
11533;SDS011;5823;50.588;8.462;2024-03-23T08:09:23;0.30;;;0.30;;
11533;SDS011;5823;50.588;8.462;2024-03-23T08:11:49;0.50;;;0.50;;
11533;SDS011;5823;50.588;8.462;2024-03-23T08:14:15;0.52;;;0.47;;
11533;SDS011;5823;50.588;8.462;2024-03-23T08:16:40;0.30;;;0.30;;
11533;SDS011;5823;50.588;8.462;2024-03-23T08:19:06;1.33;;;0.60;;
11533;SDS011;5823;50.588;8.462;2024-03-23T08:21:35;0.20;;;0.20;;
11533;SDS011;5823;50.588;8.462;2024-03-23T08:24:01;0.30;;;0.30;;
11533;SDS011;5823;50.588;8.462;2024-03-23T08:26:26;1.50;;;0.50;;
11533;SDS011;5823;50.588;8.462;2024-03-23T08:28:52;0.52;;;0.52;;
11533;SDS011;5823;50.588;8.462;2024-03-23T08:31:17;0.70;;;0.40;;
11533;SDS011;5823;50.588;8.462;2024-03-23T08:33:44;0.45;;;0.45;;
11533;SDS011;5823;50.588;8.462;2024-03-23T08:36:09;0.40;;;0.40;;
11533;SDS011;5823;50.588;8.462;2024-03-23T08:38:38;0.60;;;0.60;;
11533;SDS011;5823;50.588;8.462;2024-03-23T08:41:04;0.52;;;0.40;;
11533;SDS011;5823;50.588;8.462;2024-03-23T08:43:31;0.65;;;0.40;;
11533;SDS011;5823;50.588;8.462;2024-03-23T08:46:03;0.55;;;0.50;;
11533;SDS011;5823;50.588;8.462;2024-03-23T08:48:29;1.38;;;0.90;;
11533;SDS011;5823;50.588;8.462;2024-03-23T08:50:58;1.38;;;0.60;;
11533;SDS011;5823;50.588;8.462;2024-03-23T08:53:24;1.17;;;0.70;;
11533;SDS011;5823;50.588;8.462;2024-03-23T08:55:54;1.10;;;0.70;;
11533;SDS011;5823;50.588;8.462;2024-03-23T08:58:20;0.95;;;0.70;;
11533;SDS011;5823;50.588;8.462;2024-03-23T09:00:46;1.00;;;0.60;;
11533;SDS011;5823;50.588;8.462;2024-03-23T09:03:12;0.60;;;0.43;;
11533;SDS011;5823;50.588;8.462;2024-03-23T09:05:38;0.95;;;0.45;;
11533;SDS011;5823;50.588;8.462;2024-03-23T09:08:05;0.88;;;0.70;;
11533;SDS011;5823;50.588;8.462;2024-03-23T09:10:31;1.75;;;0.60;;
11533;SDS011;5823;50.588;8.462;2024-03-23T09:12:59;0.90;;;0.63;;
11533;SDS011;5823;50.588;8.462;2024-03-23T09:15:24;0.52;;;0.30;;
11533;SDS011;5823;50.588;8.462;2024-03-23T09:17:50;0.55;;;0.35;;
11533;SDS011;5823;50.588;8.462;2024-03-23T09:20:15;1.05;;;0.65;;
11533;SDS011;5823;50.588;8.462;2024-03-23T09:22:41;0.70;;;0.65;;
11533;SDS011;5823;50.588;8.462;2024-03-23T09:25:07;0.52;;;0.30;;
11533;SDS011;5823;50.588;8.462;2024-03-23T09:27:34;0.45;;;0.45;;
11533;SDS011;5823;50.588;8.462;2024-03-23T09:30:00;1.10;;;0.50;;
11533;SDS011;5823;50.588;8.462;2024-03-23T09:32:26;0.60;;;0.30;;
11533;SDS011;5823;50.588;8.462;2024-03-23T09:34:52;1.17;;;0.40;;
11533;SDS011;5823;50.588;8.462;2024-03-23T09:37:18;0.25;;;0.25;;
11533;SDS011;5823;50.588;8.462;2024-03-23T09:39:43;0.50;;;0.50;;
11533;SDS011;5823;50.588;8.462;2024-03-23T09:42:09;0.60;;;0.60;;
11533;SDS011;5823;50.588;8.462;2024-03-23T09:44:35;0.40;;;0.40;;
11533;SDS011;5823;50.588;8.462;2024-03-23T09:47:03;0.30;;;0.30;;
11533;SDS011;5823;50.588;8.462;2024-03-23T09:49:28;1.98;;;0.60;;
11533;SDS011;5823;50.588;8.462;2024-03-23T09:51:55;0.90;;;0.43;;
11533;SDS011;5823;50.588;8.462;2024-03-23T09:54:20;0.55;;;0.35;;
11533;SDS011;5823;50.588;8.462;2024-03-23T09:56:48;0.45;;;0.32;;
11533;SDS011;5823;50.588;8.462;2024-03-23T09:59:13;0.30;;;0.30;;
11533;SDS011;5823;50.588;8.462;2024-03-23T10:01:39;0.60;;;0.40;;
11533;SDS011;5823;50.588;8.462;2024-03-23T10:04:06;1.27;;;0.50;;
11533;SDS011;5823;50.588;8.462;2024-03-23T10:06:32;0.63;;;0.40;;
11533;SDS011;5823;50.588;8.462;2024-03-23T10:08:59;0.73;;;0.57;;
11533;SDS011;5823;50.588;8.462;2024-03-23T10:11:25;0.32;;;0.30;;
11533;SDS011;5823;50.588;8.462;2024-03-23T10:13:52;0.73;;;0.47;;
11533;SDS011;5823;50.588;8.462;2024-03-23T10:16:20;0.43;;;0.30;;
11533;SDS011;5823;50.588;8.462;2024-03-23T10:18:46;1.05;;;0.43;;
11533;SDS011;5823;50.588;8.462;2024-03-23T10:21:14;0.35;;;0.35;;
11533;SDS011;5823;50.588;8.462;2024-03-23T10:23:40;0.50;;;0.30;;
11533;SDS011;5823;50.588;8.462;2024-03-23T10:26:17;0.55;;;0.20;;
11533;SDS011;5823;50.588;8.462;2024-03-23T10:28:52;0.73;;;0.30;;
11533;SDS011;5823;50.588;8.462;2024-03-23T10:31:18;0.20;;;0.20;;
11533;SDS011;5823;50.588;8.462;2024-03-23T10:33:44;0.60;;;0.35;;
11533;SDS011;5823;50.588;8.462;2024-03-23T10:36:10;0.22;;;0.17;;
11533;SDS011;5823;50.588;8.462;2024-03-23T10:38:37;0.93;;;0.30;;
11533;SDS011;5823;50.588;8.462;2024-03-23T10:41:04;1.25;;;0.50;;
11533;SDS011;5823;50.588;8.462;2024-03-23T10:43:30;1.08;;;0.40;;
11533;SDS011;5823;50.588;8.462;2024-03-23T10:45:57;0.30;;;0.30;;
11533;SDS011;5823;50.588;8.462;2024-03-23T10:48:24;0.35;;;0.20;;
11533;SDS011;5823;50.588;8.462;2024-03-23T10:50:49;1.10;;;0.43;;
11533;SDS011;5823;50.588;8.462;2024-03-23T10:53:15;0.28;;;0.28;;
11533;SDS011;5823;50.588;8.462;2024-03-23T10:55:44;0.30;;;0.30;;
11533;SDS011;5823;50.588;8.462;2024-03-23T10:58:10;0.40;;;0.28;;
11533;SDS011;5823;50.588;8.462;2024-03-23T11:00:37;0.50;;;0.30;;
11533;SDS011;5823;50.588;8.462;2024-03-23T11:03:18;0.10;;;0.10;;
11533;SDS011;5823;50.588;8.462;2024-03-23T11:05:54;0.15;;;0.15;;
11533;SDS011;5823;50.588;8.462;2024-03-23T11:08:29;0.20;;;0.10;;
11533;SDS011;5823;50.588;8.462;2024-03-23T11:10:56;0.40;;;0.20;;
11533;SDS011;5823;50.588;8.462;2024-03-23T11:13:37;0.22;;;0.22;;
11533;SDS011;5823;50.588;8.462;2024-03-23T11:16:12;0.60;;;0.50;;
11533;SDS011;5823;50.588;8.462;2024-03-23T11:18:38;1.23;;;0.55;;
11533;SDS011;5823;50.588;8.462;2024-03-23T11:21:03;0.22;;;0.20;;
11533;SDS011;5823;50.588;8.462;2024-03-23T11:23:30;0.98;;;0.70;;
11533;SDS011;5823;50.588;8.462;2024-03-23T11:25:56;0.50;;;0.50;;
11533;SDS011;5823;50.588;8.462;2024-03-23T11:28:22;0.20;;;0.20;;
11533;SDS011;5823;50.588;8.462;2024-03-23T11:30:48;0.10;;;0.10;;
11533;SDS011;5823;50.588;8.462;2024-03-23T11:33:14;0.20;;;0.20;;
11533;SDS011;5823;50.588;8.462;2024-03-23T11:35:40;0.20;;;0.20;;
11533;SDS011;5823;50.588;8.462;2024-03-23T11:38:07;0.10;;;0.10;;
11533;SDS011;5823;50.588;8.462;2024-03-23T11:40:33;0.45;;;0.10;;
11533;SDS011;5823;50.588;8.462;2024-03-23T11:43:01;0.30;;;0.22;;
11533;SDS011;5823;50.588;8.462;2024-03-23T11:45:27;0.13;;;0.10;;
11533;SDS011;5823;50.588;8.462;2024-03-23T11:48:07;0.00;;;0.00;;
11533;SDS011;5823;50.588;8.462;2024-03-23T11:50:33;0.20;;;0.10;;
11533;SDS011;5823;50.588;8.462;2024-03-23T11:53:08;0.10;;;0.10;;
11533;SDS011;5823;50.588;8.462;2024-03-23T11:55:43;0.20;;;0.20;;
11533;SDS011;5823;50.588;8.462;2024-03-23T11:58:11;0.13;;;0.10;;
11533;SDS011;5823;50.588;8.462;2024-03-23T12:00:37;0.20;;;0.15;;
11533;SDS011;5823;50.588;8.462;2024-03-23T12:03:03;0.47;;;0.20;;
11533;SDS011;5823;50.588;8.462;2024-03-23T12:05:30;1.10;;;0.60;;
11533;SDS011;5823;50.588;8.462;2024-03-23T12:10:37;0.08;;;0.08;;
11533;SDS011;5823;50.588;8.462;2024-03-23T12:13:03;0.10;;;0.10;;
11533;SDS011;5823;50.588;8.462;2024-03-23T12:15:30;0.28;;;0.28;;
11533;SDS011;5823;50.588;8.462;2024-03-23T12:18:05;1.13;;;0.50;;
11533;SDS011;5823;50.588;8.462;2024-03-23T12:20:31;0.32;;;0.32;;
11533;SDS011;5823;50.588;8.462;2024-03-23T12:23:04;0.25;;;0.22;;
11533;SDS011;5823;50.588;8.462;2024-03-23T12:25:29;0.20;;;0.20;;
11533;SDS011;5823;50.588;8.462;2024-03-23T12:27:57;0.20;;;0.20;;
11533;SDS011;5823;50.588;8.462;2024-03-23T12:30:22;0.03;;;0.03;;
11533;SDS011;5823;50.588;8.462;2024-03-23T12:32:50;0.25;;;0.22;;
11533;SDS011;5823;50.588;8.462;2024-03-23T12:35:15;0.88;;;0.30;;
11533;SDS011;5823;50.588;8.462;2024-03-23T12:37:41;0.45;;;0.40;;
11533;SDS011;5823;50.588;8.462;2024-03-23T12:40:07;0.45;;;0.32;;
11533;SDS011;5823;50.588;8.462;2024-03-23T12:42:34;0.43;;;0.40;;
11533;SDS011;5823;50.588;8.462;2024-03-23T12:44:59;0.10;;;0.10;;
11533;SDS011;5823;50.588;8.462;2024-03-23T12:47:25;0.60;;;0.30;;
11533;SDS011;5823;50.588;8.462;2024-03-23T12:49:53;0.28;;;0.20;;
11533;SDS011;5823;50.588;8.462;2024-03-23T12:52:19;0.10;;;0.10;;
11533;SDS011;5823;50.588;8.462;2024-03-23T12:54:46;0.10;;;0.10;;
11533;SDS011;5823;50.588;8.462;2024-03-23T12:57:13;0.20;;;0.20;;
11533;SDS011;5823;50.588;8.462;2024-03-23T12:59:38;0.40;;;0.40;;
11533;SDS011;5823;50.588;8.462;2024-03-23T13:02:04;0.25;;;0.10;;
11533;SDS011;5823;50.588;8.462;2024-03-23T13:04:29;0.40;;;0.25;;
11533;SDS011;5823;50.588;8.462;2024-03-23T13:06:57;0.20;;;0.20;;
11533;SDS011;5823;50.588;8.462;2024-03-23T13:09:23;0.30;;;0.30;;
11533;SDS011;5823;50.588;8.462;2024-03-23T13:11:49;0.10;;;0.10;;
11533;SDS011;5823;50.588;8.462;2024-03-23T13:14:14;0.32;;;0.32;;
11533;SDS011;5823;50.588;8.462;2024-03-23T13:16:41;0.22;;;0.20;;
11533;SDS011;5823;50.588;8.462;2024-03-23T13:19:07;0.20;;;0.20;;
11533;SDS011;5823;50.588;8.462;2024-03-23T13:21:33;0.63;;;0.22;;
11533;SDS011;5823;50.588;8.462;2024-03-23T13:24:00;0.50;;;0.28;;
11533;SDS011;5823;50.588;8.462;2024-03-23T13:26:26;0.43;;;0.30;;
11533;SDS011;5823;50.588;8.462;2024-03-23T13:28:51;0.20;;;0.20;;
11533;SDS011;5823;50.588;8.462;2024-03-23T13:31:17;0.22;;;0.10;;
11533;SDS011;5823;50.588;8.462;2024-03-23T13:33:43;0.38;;;0.30;;
11533;SDS011;5823;50.588;8.462;2024-03-23T13:36:09;0.65;;;0.35;;
11533;SDS011;5823;50.588;8.462;2024-03-23T13:38:35;0.10;;;0.10;;
11533;SDS011;5823;50.588;8.462;2024-03-23T13:41:02;0.20;;;0.20;;
11533;SDS011;5823;50.588;8.462;2024-03-23T13:43:29;0.50;;;0.40;;
11533;SDS011;5823;50.588;8.462;2024-03-23T13:45:55;0.10;;;0.10;;
11533;SDS011;5823;50.588;8.462;2024-03-23T13:48:22;0.20;;;0.13;;
11533;SDS011;5823;50.588;8.462;2024-03-23T13:50:56;0.10;;;0.10;;
11533;SDS011;5823;50.588;8.462;2024-03-23T13:53:22;0.32;;;0.10;;
11533;SDS011;5823;50.588;8.462;2024-03-23T13:55:48;0.10;;;0.10;;
11533;SDS011;5823;50.588;8.462;2024-03-23T13:58:16;0.47;;;0.30;;
11533;SDS011;5823;50.588;8.462;2024-03-23T14:00:41;0.47;;;0.40;;
11533;SDS011;5823;50.588;8.462;2024-03-23T14:03:08;0.30;;;0.30;;
11533;SDS011;5823;50.588;8.462;2024-03-23T14:05:34;0.28;;;0.22;;
11533;SDS011;5823;50.588;8.462;2024-03-23T14:08:00;0.13;;;0.10;;
11533;SDS011;5823;50.588;8.462;2024-03-23T14:10:25;0.30;;;0.30;;
11533;SDS011;5823;50.588;8.462;2024-03-23T14:12:52;0.35;;;0.28;;
11533;SDS011;5823;50.588;8.462;2024-03-23T14:15:19;0.10;;;0.10;;
11533;SDS011;5823;50.588;8.462;2024-03-23T14:17:45;0.10;;;0.10;;
11533;SDS011;5823;50.588;8.462;2024-03-23T14:20:11;0.20;;;0.20;;
11533;SDS011;5823;50.588;8.462;2024-03-23T14:22:38;0.25;;;0.25;;
11533;SDS011;5823;50.588;8.462;2024-03-23T14:25:06;0.10;;;0.10;;
11533;SDS011;5823;50.588;8.462;2024-03-23T14:27:32;0.20;;;0.20;;
11533;SDS011;5823;50.588;8.462;2024-03-23T14:29:58;0.32;;;0.22;;
11533;SDS011;5823;50.588;8.462;2024-03-23T14:32:25;0.40;;;0.40;;
11533;SDS011;5823;50.588;8.462;2024-03-23T14:34:50;1.08;;;0.30;;
11533;SDS011;5823;50.588;8.462;2024-03-23T14:37:19;0.13;;;0.13;;
11533;SDS011;5823;50.588;8.462;2024-03-23T14:39:44;0.22;;;0.10;;
11533;SDS011;5823;50.588;8.462;2024-03-23T14:42:11;0.20;;;0.20;;
11533;SDS011;5823;50.588;8.462;2024-03-23T14:44:36;0.30;;;0.30;;
11533;SDS011;5823;50.588;8.462;2024-03-23T14:47:02;0.10;;;0.10;;
11533;SDS011;5823;50.588;8.462;2024-03-23T14:49:29;0.10;;;0.10;;
11533;SDS011;5823;50.588;8.462;2024-03-23T14:54:23;0.08;;;0.05;;
11533;SDS011;5823;50.588;8.462;2024-03-23T15:02:43;0.22;;;0.20;;
11533;SDS011;5823;50.588;8.462;2024-03-23T15:05:11;0.20;;;0.20;;
11533;SDS011;5823;50.588;8.462;2024-03-23T15:07:38;0.10;;;0.10;;
11533;SDS011;5823;50.588;8.462;2024-03-23T15:10:03;0.05;;;0.05;;
11533;SDS011;5823;50.588;8.462;2024-03-23T15:12:30;0.20;;;0.20;;
11533;SDS011;5823;50.588;8.462;2024-03-23T15:14:57;0.20;;;0.20;;
11533;SDS011;5823;50.588;8.462;2024-03-23T15:17:23;0.00;;;0.00;;
11533;SDS011;5823;50.588;8.462;2024-03-23T15:19:48;0.00;;;0.00;;
11533;SDS011;5823;50.588;8.462;2024-03-23T15:22:16;0.10;;;0.10;;
11533;SDS011;5823;50.588;8.462;2024-03-23T15:24:41;0.22;;;0.22;;
11533;SDS011;5823;50.588;8.462;2024-03-23T15:27:07;0.20;;;0.20;;
11533;SDS011;5823;50.588;8.462;2024-03-23T15:29:34;0.00;;;0.00;;
11533;SDS011;5823;50.588;8.462;2024-03-23T15:32:01;0.17;;;0.17;;
11533;SDS011;5823;50.588;8.462;2024-03-23T15:34:26;0.10;;;0.10;;
11533;SDS011;5823;50.588;8.462;2024-03-23T15:36:53;0.15;;;0.15;;
11533;SDS011;5823;50.588;8.462;2024-03-23T15:39:20;0.30;;;0.10;;
11533;SDS011;5823;50.588;8.462;2024-03-23T15:41:47;0.32;;;0.20;;
11533;SDS011;5823;50.588;8.462;2024-03-23T15:44:12;0.00;;;0.00;;
11533;SDS011;5823;50.588;8.462;2024-03-23T15:46:39;0.10;;;0.10;;
11533;SDS011;5823;50.588;8.462;2024-03-23T15:49:04;0.17;;;0.17;;
11533;SDS011;5823;50.588;8.462;2024-03-23T15:51:31;1.25;;;0.85;;
11533;SDS011;5823;50.588;8.462;2024-03-23T15:53:57;1.10;;;0.73;;
11533;SDS011;5823;50.588;8.462;2024-03-23T15:56:25;1.00;;;0.70;;
11533;SDS011;5823;50.588;8.462;2024-03-23T15:58:50;0.55;;;0.55;;